createdAt,value
2019-02-08T00:00:48.803Z,7.32
2019-02-08T00:01:48.672Z,7.28
2019-02-08T00:02:48.670Z,7.17
2019-02-08T00:03:48.652Z,7.18
2019-02-08T00:04:48.647Z,7.20
2019-02-08T00:05:48.638Z,7.15
2019-02-08T00:06:48.629Z,7.20
2019-02-08T00:07:48.623Z,7.18
2019-02-08T00:08:48.620Z,7.18
2019-02-08T00:09:48.608Z,7.21
2019-02-08T00:10:48.609Z,7.11
2019-02-08T00:11:48.585Z,7.17
2019-02-08T00:12:48.576Z,7.18
2019-02-08T00:13:48.576Z,7.07
2019-02-08T00:14:48.565Z,7.07
2019-02-08T00:15:48.552Z,7.21
2019-02-08T00:16:48.545Z,7.06
2019-02-08T00:17:48.541Z,7.03
2019-02-08T00:18:48.527Z,7.11
2019-02-08T00:19:48.518Z,7.18
2019-02-08T00:20:48.536Z,7.10
2019-02-08T00:21:48.499Z,7.20
2019-02-08T00:22:48.497Z,7.14
2019-02-08T00:23:48.478Z,7.21
2019-02-08T00:24:48.474Z,7.14
2019-02-08T00:25:48.465Z,7.23
2019-02-08T00:26:48.459Z,7.05
2019-02-08T00:27:48.450Z,7.14
2019-02-08T00:28:48.436Z,7.11
2019-02-08T00:29:48.429Z,7.13
2019-02-08T00:30:48.623Z,6.97
2019-02-08T00:31:48.416Z,6.97
2019-02-08T00:32:48.440Z,6.96
2019-02-08T00:33:48.391Z,6.96
2019-02-08T00:34:48.384Z,6.97
2019-02-08T00:35:48.375Z,7.02
2019-02-08T00:36:48.369Z,6.93
2019-02-08T00:37:48.355Z,6.96
2019-02-08T00:38:48.354Z,6.99
2019-02-08T00:39:48.342Z,6.96
2019-02-08T00:40:48.336Z,6.97
2019-02-08T00:41:48.325Z,6.99
2019-02-08T00:42:48.316Z,6.99
2019-02-08T00:43:48.305Z,6.99
2019-02-08T00:44:48.303Z,7.03
2019-02-08T00:45:48.287Z,7.00
2019-02-08T00:46:48.282Z,7.00
2019-02-08T00:47:48.276Z,6.97
2019-02-08T00:48:48.263Z,7.00
2019-02-08T00:49:48.256Z,6.96
2019-02-08T00:50:48.246Z,6.96
2019-02-08T00:51:48.235Z,6.95
2019-02-08T00:52:48.225Z,7.00
2019-02-08T00:53:48.219Z,6.99
2019-02-08T00:54:48.211Z,6.93
2019-02-08T00:55:48.205Z,7.00
2019-02-08T00:56:48.196Z,6.81
2019-02-08T00:57:48.190Z,6.85
2019-02-08T00:58:48.172Z,6.99
2019-02-08T00:59:48.167Z,6.88
2019-02-08T01:00:48.155Z,6.87
2019-02-08T01:01:48.152Z,6.87
2019-02-08T01:02:48.139Z,6.87
2019-02-08T01:04:48.121Z,6.67
2019-02-08T01:05:48.111Z,6.75
2019-02-08T01:06:48.102Z,6.77
2019-02-08T01:07:48.099Z,6.69
2019-02-08T01:08:48.089Z,6.69
2019-02-08T01:09:48.079Z,6.70
2019-02-08T01:10:48.065Z,6.67
2019-02-08T01:11:48.057Z,6.64
2019-02-08T01:12:48.049Z,6.59
2019-02-08T01:13:48.038Z,6.60
2019-02-08T01:14:48.034Z,6.57
2019-02-08T01:15:48.020Z,6.48
2019-02-08T01:16:48.011Z,6.41
2019-02-08T01:17:48.037Z,6.56
2019-02-08T01:18:48.003Z,6.54
2019-02-08T01:19:47.992Z,6.51
2019-02-08T01:20:47.976Z,6.52
2019-02-08T01:21:47.971Z,6.44
2019-02-08T01:22:47.960Z,6.48
2019-02-08T01:23:47.953Z,6.59
2019-02-08T01:24:47.945Z,6.52
2019-02-08T01:25:47.934Z,6.56
2019-02-08T01:26:47.925Z,6.56
2019-02-08T01:27:47.915Z,6.54
2019-02-08T01:28:47.909Z,6.57
2019-02-08T01:29:47.900Z,6.63
2019-02-08T01:30:47.887Z,6.62
2019-02-08T01:31:47.887Z,6.70
2019-02-08T01:32:47.868Z,6.67
2019-02-08T01:33:47.867Z,6.67
2019-02-08T01:34:47.855Z,6.79
2019-02-08T01:35:47.849Z,6.69
2019-02-08T01:36:47.835Z,6.75
2019-02-08T01:37:47.827Z,6.77
2019-02-08T01:38:47.823Z,6.72
2019-02-08T01:39:47.813Z,6.72
2019-02-08T01:40:47.800Z,6.78
2019-02-08T01:41:47.788Z,6.70
2019-02-08T01:42:47.781Z,6.72
2019-02-08T01:43:47.774Z,6.67
2019-02-08T01:44:47.762Z,6.70
2019-02-08T01:45:47.756Z,6.81
2019-02-08T01:46:47.753Z,6.81
2019-02-08T01:47:47.741Z,6.74
2019-02-08T01:48:47.734Z,6.75
2019-02-08T01:49:47.722Z,6.81
2019-02-08T01:50:47.709Z,6.84
2019-02-08T01:51:47.703Z,6.92
2019-02-08T01:52:47.695Z,6.87
2019-02-08T01:53:48.888Z,6.93
2019-02-08T01:54:47.675Z,6.88
2019-02-08T01:55:47.669Z,6.87
2019-02-08T01:56:47.659Z,6.84
2019-02-08T01:57:47.651Z,6.93
2019-02-08T01:58:47.650Z,6.97
2019-02-08T01:59:47.630Z,6.99
2019-02-08T02:00:47.625Z,6.99
2019-02-08T02:01:47.615Z,6.96
2019-02-08T02:02:47.607Z,7.00
2019-02-08T02:03:47.605Z,6.95
2019-02-08T02:04:47.587Z,6.93
2019-02-08T02:05:47.577Z,7.00
2019-02-08T02:06:47.576Z,7.02
2019-02-08T02:07:47.563Z,7.02
2019-02-08T02:08:47.558Z,6.96
2019-02-08T02:09:47.544Z,6.97
2019-02-08T02:10:47.540Z,6.99
2019-02-08T02:11:47.529Z,6.96
2019-02-08T02:12:47.523Z,7.00
2019-02-08T02:13:47.514Z,6.93
2019-02-08T02:14:47.504Z,6.97
2019-02-08T02:15:47.496Z,6.93
2019-02-08T02:16:47.480Z,6.88
2019-02-08T02:17:47.479Z,6.87
2019-02-08T02:18:47.471Z,6.99
2019-02-08T02:19:47.460Z,6.99
2019-02-08T02:20:47.458Z,7.02
2019-02-08T02:21:47.441Z,6.96
2019-02-08T02:22:47.431Z,6.97
2019-02-08T02:23:47.422Z,6.87
2019-02-08T02:24:47.414Z,6.87
2019-02-08T02:25:47.405Z,6.88
2019-02-08T02:26:47.395Z,6.85
2019-02-08T02:27:47.388Z,6.88
2019-02-08T02:28:47.382Z,6.92
2019-02-08T02:29:47.367Z,6.87
2019-02-08T02:30:47.364Z,6.97
2019-02-08T02:31:47.360Z,6.96
2019-02-08T02:32:47.351Z,6.93
2019-02-08T02:33:47.332Z,6.96
2019-02-08T02:34:47.329Z,6.87
2019-02-08T02:35:47.383Z,6.87
2019-02-08T02:36:47.312Z,6.88
2019-02-08T02:37:47.313Z,6.87
2019-02-08T02:39:20.706Z,6.87
2019-02-08T02:39:47.287Z,6.99
2019-02-08T02:40:47.273Z,6.95
2019-02-08T02:41:47.265Z,6.96
2019-02-08T02:42:47.262Z,6.97
2019-02-08T02:43:47.252Z,7.00
2019-02-08T02:44:47.238Z,6.95
2019-02-08T02:45:47.234Z,6.97
2019-02-08T02:46:47.221Z,6.93
2019-02-08T02:47:47.210Z,6.95
2019-02-08T02:48:47.201Z,6.93
2019-02-08T02:49:47.198Z,7.02
2019-02-08T02:50:47.183Z,6.99
2019-02-08T02:51:47.182Z,6.96
2019-02-08T02:52:47.171Z,6.97
2019-02-08T02:53:47.163Z,6.92
2019-02-08T02:54:47.152Z,7.05
2019-02-08T02:55:47.144Z,6.96
2019-02-08T02:56:47.135Z,6.96
2019-02-08T02:57:47.129Z,6.96
2019-02-08T02:58:47.117Z,6.93
2019-02-08T02:59:47.106Z,6.97
2019-02-08T03:00:47.097Z,6.96
2019-02-08T03:01:47.089Z,6.99
2019-02-08T03:02:47.078Z,6.96
2019-02-08T03:03:47.075Z,6.97
2019-02-08T03:04:47.060Z,6.97
2019-02-08T03:05:47.060Z,6.96
2019-02-08T03:06:47.045Z,6.99
2019-02-08T03:07:47.039Z,6.99
2019-02-08T03:08:47.027Z,6.97
2019-02-08T03:09:47.018Z,6.92
2019-02-08T03:11:20.223Z,7.02
2019-02-08T03:11:47.011Z,6.97
2019-02-08T03:12:47.001Z,6.97
2019-02-08T03:13:46.989Z,6.99
2019-02-08T03:14:46.981Z,6.93
2019-02-08T03:15:46.973Z,7.02
2019-02-08T03:16:46.958Z,6.99
2019-02-08T03:17:46.951Z,7.05
2019-02-08T03:18:47.003Z,7.00
2019-02-08T03:19:46.932Z,6.95
2019-02-08T03:20:46.939Z,6.99
2019-02-08T03:21:46.919Z,6.99
2019-02-08T03:22:46.902Z,6.96
2019-02-08T03:23:46.902Z,6.97
2019-02-08T03:24:46.889Z,6.99
2019-02-08T03:25:46.885Z,6.99
2019-02-08T03:26:46.875Z,6.96
2019-02-08T03:27:46.880Z,6.97
2019-02-08T03:28:47.053Z,6.99
2019-02-08T03:29:46.841Z,7.02
2019-02-08T03:30:46.840Z,6.93
2019-02-08T03:31:46.832Z,6.96
2019-02-08T03:32:46.824Z,7.02
2019-02-08T03:33:46.812Z,6.99
2019-02-08T03:34:46.803Z,6.96
2019-02-08T03:35:46.791Z,6.96
2019-02-08T03:36:46.784Z,6.93
2019-02-08T03:37:46.774Z,6.96
2019-02-08T03:38:46.772Z,6.96
2019-02-08T03:39:46.762Z,6.96
2019-02-08T03:40:46.753Z,7.00
2019-02-08T03:41:46.738Z,6.96
2019-02-08T03:42:46.734Z,6.93
2019-02-08T03:43:46.728Z,7.00
2019-02-08T03:44:46.713Z,6.95
2019-02-08T03:45:46.708Z,7.00
2019-02-08T03:46:46.694Z,6.96
2019-02-08T03:47:46.692Z,6.84
2019-02-08T03:48:46.681Z,6.82
2019-02-08T03:49:46.676Z,6.93
2019-02-08T03:50:46.662Z,6.96
2019-02-08T03:51:46.856Z,6.87
2019-02-08T03:52:46.641Z,6.85
2019-02-08T03:53:46.639Z,6.92
2019-02-08T03:54:46.627Z,6.87
2019-02-08T03:55:46.615Z,6.84
2019-02-08T03:56:46.618Z,6.89
2019-02-08T03:57:46.597Z,6.87
2019-02-08T03:58:46.591Z,6.87
2019-02-08T03:59:46.584Z,6.87
2019-02-08T04:00:46.785Z,6.95
2019-02-08T04:01:46.573Z,6.84
2019-02-08T04:02:46.564Z,6.97
2019-02-08T04:03:46.550Z,6.87
2019-02-08T04:04:46.542Z,6.97
2019-02-08T04:05:46.527Z,6.87
2019-02-08T04:06:46.523Z,6.87
2019-02-08T04:07:46.530Z,6.81
2019-02-08T04:08:46.511Z,6.81
2019-02-08T04:09:46.499Z,6.85
2019-02-08T04:10:46.484Z,6.89
2019-02-08T04:11:46.482Z,6.87
2019-02-08T04:12:46.470Z,6.89
2019-02-08T04:13:46.457Z,6.84
2019-02-08T04:14:46.460Z,6.88
2019-02-08T04:15:46.442Z,6.85
2019-02-08T04:16:46.436Z,6.84
2019-02-08T04:17:46.423Z,6.84
2019-02-08T04:18:46.414Z,6.87
2019-02-08T04:19:46.408Z,6.84
2019-02-08T04:20:46.420Z,6.97
2019-02-08T04:21:46.399Z,6.92
2019-02-08T04:22:46.379Z,6.89
2019-02-08T04:23:46.379Z,6.96
2019-02-08T04:24:46.363Z,6.99
2019-02-08T04:25:46.356Z,6.95
2019-02-08T04:26:46.348Z,6.84
2019-02-08T04:27:46.346Z,6.85
2019-02-08T04:28:46.328Z,6.89
2019-02-08T04:29:46.326Z,6.82
2019-02-08T04:30:46.318Z,6.87
2019-02-08T04:31:46.309Z,6.87
2019-02-08T04:32:46.295Z,6.84
2019-02-08T04:33:46.294Z,6.82
2019-02-08T04:34:46.276Z,6.82
2019-02-08T04:35:46.275Z,6.93
2019-02-08T04:36:46.264Z,6.82
2019-02-08T04:37:46.258Z,6.88
2019-02-08T04:39:46.237Z,6.85
2019-02-08T04:40:46.231Z,6.84
2019-02-08T04:41:46.219Z,6.92
2019-02-08T04:42:46.207Z,6.87
2019-02-08T04:43:46.200Z,6.92
2019-02-08T04:44:46.197Z,6.85
2019-02-08T04:45:46.187Z,6.79
2019-02-08T04:46:46.179Z,6.84
2019-02-08T04:47:46.174Z,6.82
2019-02-08T04:48:46.161Z,6.87
2019-02-08T04:49:46.149Z,6.85
2019-02-08T04:51:46.141Z,6.78
2019-02-08T04:52:46.123Z,6.81
2019-02-08T04:54:46.110Z,6.74
2019-02-08T04:55:46.100Z,6.69
2019-02-08T04:56:46.093Z,6.74
2019-02-08T04:57:46.079Z,6.74
2019-02-08T04:58:46.076Z,6.72
2019-02-08T04:59:46.066Z,6.75
2019-02-08T05:00:46.051Z,6.74
2019-02-08T05:01:46.049Z,6.81
2019-02-08T05:02:46.040Z,6.70
2019-02-08T05:03:46.025Z,6.72
2019-02-08T05:04:46.224Z,6.75
2019-02-08T05:05:46.012Z,6.75
2019-02-08T05:06:46.004Z,6.75
2019-02-08T05:07:45.998Z,6.77
2019-02-08T05:08:45.988Z,6.74
2019-02-08T05:09:45.976Z,6.74
2019-02-08T05:10:46.024Z,6.67
2019-02-08T05:11:45.961Z,6.78
2019-02-08T05:12:45.950Z,6.74
2019-02-08T05:13:45.940Z,6.70
2019-02-08T05:14:45.933Z,6.72
2019-02-08T05:15:45.925Z,6.64
2019-02-08T05:16:45.912Z,6.70
2019-02-08T05:17:45.904Z,6.64
2019-02-08T05:18:45.900Z,6.60
2019-02-08T05:19:46.091Z,6.63
2019-02-08T05:20:45.880Z,6.59
2019-02-08T05:21:45.882Z,6.59
2019-02-08T05:22:45.858Z,6.59
2019-02-08T05:23:45.858Z,6.56
2019-02-08T05:24:46.214Z,6.56
2019-02-08T05:25:45.836Z,6.46
2019-02-08T05:26:45.824Z,6.59
2019-02-08T05:27:45.821Z,6.57
2019-02-08T05:28:45.810Z,6.56
2019-02-08T05:29:45.795Z,6.59
2019-02-08T05:30:45.787Z,6.56
2019-02-08T05:31:45.785Z,6.57
2019-02-08T05:32:45.773Z,6.57
2019-02-08T05:33:45.765Z,6.56
2019-02-08T05:34:45.757Z,6.49
2019-02-08T05:35:45.749Z,6.54
2019-02-08T05:36:45.738Z,6.54
2019-02-08T05:37:45.732Z,6.51
2019-02-08T05:38:45.721Z,6.63
2019-02-08T05:39:45.711Z,6.64
2019-02-08T05:40:45.702Z,6.56
2019-02-08T05:41:45.694Z,6.57
2019-02-08T05:42:45.685Z,6.60
2019-02-08T05:44:45.665Z,6.51
2019-02-08T05:45:45.652Z,6.44
2019-02-08T05:46:45.649Z,6.44
2019-02-08T05:47:45.641Z,6.41
2019-02-08T05:48:45.623Z,6.41
2019-02-08T05:49:45.616Z,6.39
2019-02-08T05:50:45.613Z,6.39
2019-02-08T05:51:45.605Z,6.39
2019-02-08T05:52:45.591Z,6.45
2019-02-08T05:53:45.580Z,6.41
2019-02-08T05:54:45.583Z,6.35
2019-02-08T05:55:45.568Z,6.41
2019-02-08T05:56:45.552Z,6.44
2019-02-08T05:57:45.549Z,6.39
2019-02-08T05:58:45.541Z,6.39
2019-02-08T05:59:45.531Z,6.39
2019-02-08T06:00:45.524Z,6.41
2019-02-08T06:01:45.504Z,6.33
2019-02-08T06:02:45.515Z,6.33
2019-02-08T06:03:45.490Z,6.33
2019-02-08T06:04:45.478Z,6.31
2019-02-08T06:05:45.477Z,6.39
2019-02-08T06:06:45.464Z,6.35
2019-02-08T06:07:45.459Z,6.31
2019-02-08T06:08:45.448Z,6.22
2019-02-08T06:09:45.431Z,6.31
2019-02-08T06:10:45.430Z,6.36
2019-02-08T06:11:45.420Z,6.31
2019-02-08T06:12:45.403Z,6.36
2019-02-08T06:13:45.402Z,6.19
2019-02-08T06:14:45.397Z,6.20
2019-02-08T06:15:45.377Z,6.35
2019-02-08T06:16:46.958Z,6.35
2019-02-08T06:17:45.357Z,6.26
2019-02-08T06:18:45.356Z,6.35
2019-02-08T06:19:45.347Z,6.19
2019-02-08T06:20:45.334Z,6.35
2019-02-08T06:21:45.327Z,6.28
2019-02-08T06:22:45.315Z,6.20
2019-02-08T06:23:45.310Z,6.39
2019-02-08T06:24:45.294Z,6.35
2019-02-08T06:25:45.284Z,6.33
2019-02-08T06:26:45.279Z,6.24
2019-02-08T06:27:45.265Z,6.33
2019-02-08T06:28:45.262Z,6.39
2019-02-08T06:29:45.253Z,6.28
2019-02-08T06:30:45.241Z,6.38
2019-02-08T06:31:45.230Z,6.33
2019-02-08T06:32:45.221Z,6.38
2019-02-08T06:33:45.210Z,6.39
2019-02-08T06:34:45.204Z,6.35
2019-02-08T06:35:45.193Z,6.41
2019-02-08T06:36:45.190Z,6.38
2019-02-08T06:37:45.173Z,6.46
2019-02-08T06:38:45.165Z,6.42
2019-02-08T06:39:45.161Z,6.41
2019-02-08T06:40:45.152Z,6.48
2019-02-08T06:41:45.137Z,6.41
2019-02-08T06:42:45.127Z,6.39
2019-02-08T06:43:45.138Z,6.36
2019-02-08T06:44:45.107Z,6.44
2019-02-08T06:45:45.101Z,6.36
2019-02-08T06:46:45.093Z,6.42
2019-02-08T06:47:45.090Z,6.41
2019-02-08T06:48:45.074Z,6.54
2019-02-08T06:49:45.059Z,6.48
2019-02-08T06:50:45.058Z,6.56
2019-02-08T06:51:45.043Z,6.57
2019-02-08T06:52:45.037Z,6.60
2019-02-08T06:53:45.031Z,6.59
2019-02-08T06:54:45.017Z,6.63
2019-02-08T06:55:45.013Z,6.64
2019-02-08T06:56:45.004Z,6.84
2019-02-08T06:57:44.989Z,6.70
2019-02-08T06:58:44.982Z,6.67
2019-02-08T06:59:44.975Z,6.81
2019-02-08T07:00:44.963Z,6.70
2019-02-08T07:01:44.953Z,6.72
2019-02-08T07:02:44.968Z,6.67
2019-02-08T07:03:45.024Z,6.69
2019-02-08T07:04:44.949Z,6.70
2019-02-08T07:05:44.946Z,6.60
2019-02-08T07:06:44.906Z,6.60
2019-02-08T07:07:44.905Z,6.69
2019-02-08T07:08:44.898Z,6.69
2019-02-08T07:09:44.896Z,6.63
2019-02-08T07:10:44.873Z,6.60
2019-02-08T07:11:44.862Z,6.62
2019-02-08T07:12:44.850Z,6.60
2019-02-08T07:13:44.841Z,6.54
2019-02-08T07:14:44.833Z,6.62
2019-02-08T07:15:44.824Z,6.54
2019-02-08T07:16:44.816Z,6.54
2019-02-08T07:17:44.813Z,6.60
2019-02-08T07:18:44.803Z,6.52
2019-02-08T07:19:44.792Z,6.59
2019-02-08T07:20:44.783Z,6.60
2019-02-08T07:21:44.770Z,6.62
2019-02-08T07:22:44.765Z,6.60
2019-02-08T07:23:44.756Z,6.62
2019-02-08T07:24:44.744Z,6.59
2019-02-08T07:25:44.735Z,6.52
2019-02-08T07:26:44.728Z,6.67
2019-02-08T07:27:44.715Z,6.57
2019-02-08T07:28:44.713Z,6.52
2019-02-08T07:29:44.700Z,6.54
2019-02-08T07:30:44.695Z,6.63
2019-02-08T07:31:44.680Z,6.63
2019-02-08T07:32:44.669Z,6.59
2019-02-08T07:33:44.663Z,6.59
2019-02-08T07:34:44.659Z,6.62
2019-02-08T07:35:44.647Z,6.57
2019-02-08T07:36:44.632Z,6.56
2019-02-08T07:37:44.625Z,6.52
2019-02-08T07:38:44.619Z,6.57
2019-02-08T07:39:44.605Z,6.63
2019-02-08T07:40:44.597Z,6.52
2019-02-08T07:41:44.588Z,6.56
2019-02-08T07:42:44.580Z,6.60
2019-02-08T07:43:44.571Z,6.60
2019-02-08T07:44:44.564Z,6.56
2019-02-08T07:45:44.554Z,6.64
2019-02-08T07:46:44.548Z,6.56
2019-02-08T07:47:44.538Z,6.49
2019-02-08T07:48:44.522Z,6.56
2019-02-08T07:49:44.520Z,6.59
2019-02-08T07:50:44.504Z,6.56
2019-02-08T07:51:44.495Z,6.51
2019-02-08T07:52:44.492Z,6.57
2019-02-08T07:53:44.481Z,6.57
2019-02-08T07:54:44.478Z,6.57
2019-02-08T07:55:44.467Z,6.59
2019-02-08T07:56:44.449Z,6.57
2019-02-08T07:57:44.439Z,6.57
2019-02-08T07:58:44.435Z,6.56
2019-02-08T08:00:44.416Z,6.57
2019-02-08T08:01:44.410Z,6.59
2019-02-08T08:02:44.394Z,6.49
2019-02-08T08:03:44.391Z,6.57
2019-02-08T08:04:44.386Z,6.57
2019-02-08T08:05:44.371Z,6.52
2019-02-08T08:06:44.359Z,6.60
2019-02-08T08:07:44.354Z,6.56
2019-02-08T08:08:44.339Z,6.59
2019-02-08T08:09:44.336Z,6.54
2019-02-08T08:10:44.322Z,6.63
2019-02-08T08:11:44.316Z,6.59
2019-02-08T08:12:44.303Z,6.63
2019-02-08T08:13:44.299Z,6.59
2019-02-08T08:14:44.293Z,6.57
2019-02-08T08:15:44.279Z,6.63
2019-02-08T08:16:44.274Z,6.57
2019-02-08T08:17:44.259Z,6.66
2019-02-08T08:18:44.255Z,6.66
2019-02-08T08:19:44.250Z,6.67
2019-02-08T08:20:44.233Z,6.74
2019-02-08T08:21:44.224Z,6.72
2019-02-08T08:22:44.217Z,6.74
2019-02-08T08:23:44.211Z,6.72
2019-02-08T08:24:44.199Z,6.70
2019-02-08T08:25:44.193Z,6.72
2019-02-08T08:26:44.183Z,6.74
2019-02-08T08:27:44.175Z,6.75
2019-02-08T08:28:44.192Z,6.78
2019-02-08T08:29:44.160Z,6.70
2019-02-08T08:30:44.145Z,6.67
2019-02-08T08:31:44.136Z,6.75
2019-02-08T08:32:44.131Z,6.75
2019-02-08T08:33:44.118Z,6.72
2019-02-08T08:34:44.119Z,6.85
2019-02-08T08:35:44.110Z,6.74
2019-02-08T08:36:44.096Z,6.72
2019-02-08T08:37:44.086Z,6.79
2019-02-08T08:38:44.077Z,6.87
2019-02-08T08:39:44.068Z,6.92
2019-02-08T08:40:44.058Z,6.87
2019-02-08T08:41:44.055Z,6.81
2019-02-08T08:42:44.046Z,6.85
2019-02-08T08:43:44.039Z,6.97
2019-02-08T08:44:44.022Z,6.95
2019-02-08T08:45:44.015Z,6.96
2019-02-08T08:46:44.007Z,7.00
2019-02-08T08:47:44.004Z,6.99
2019-02-08T08:48:43.990Z,7.02
2019-02-08T08:49:43.986Z,6.99
2019-02-08T08:50:43.978Z,7.13
2019-02-08T08:51:43.967Z,7.17
2019-02-08T08:52:43.963Z,7.11
2019-02-08T08:53:44.094Z,7.14
2019-02-08T08:54:43.951Z,7.15
2019-02-08T08:55:43.932Z,7.14
2019-02-08T08:56:43.923Z,7.20
2019-02-08T08:57:43.917Z,7.20
2019-02-08T08:58:43.911Z,7.15
2019-02-08T08:59:43.903Z,7.29
2019-02-08T09:00:43.888Z,7.24
2019-02-08T09:01:43.884Z,7.23
2019-02-08T09:02:43.878Z,7.18
2019-02-08T09:03:43.867Z,7.28
2019-02-08T09:04:43.856Z,7.29
2019-02-08T09:05:43.854Z,7.28
2019-02-08T09:06:43.840Z,7.38
2019-02-08T09:07:43.837Z,7.31
2019-02-08T09:08:43.832Z,7.32
2019-02-08T09:09:43.822Z,7.35
2019-02-08T09:10:43.813Z,7.28
2019-02-08T09:11:43.804Z,7.35
2019-02-08T09:12:43.793Z,7.33
2019-02-08T09:13:43.784Z,7.38
2019-02-08T09:14:43.776Z,7.38
2019-02-08T09:15:43.769Z,7.38
2019-02-08T09:16:43.759Z,7.39
2019-02-08T09:17:43.758Z,7.47
2019-02-08T09:18:43.745Z,7.42
2019-02-08T09:19:43.739Z,7.42
2019-02-08T09:20:43.733Z,7.56
2019-02-08T09:21:43.721Z,7.51
2019-02-08T09:22:43.713Z,7.48
2019-02-08T09:23:43.704Z,7.51
2019-02-08T09:24:43.699Z,7.53
2019-02-08T09:25:49.727Z,7.56
2019-02-08T09:26:43.684Z,7.51
2019-02-08T09:27:43.672Z,7.54
2019-02-08T09:28:43.666Z,7.56
2019-02-08T09:29:43.660Z,7.56
2019-02-08T09:30:43.647Z,7.54
2019-02-08T09:31:43.643Z,7.70
2019-02-08T09:32:43.629Z,7.66
2019-02-08T09:33:43.623Z,7.69
2019-02-08T09:34:43.612Z,7.69
2019-02-08T09:35:43.614Z,7.76
2019-02-08T09:36:47.626Z,7.76
2019-02-08T09:37:43.592Z,7.79
2019-02-08T09:38:43.586Z,7.76
2019-02-08T09:39:43.576Z,7.75
2019-02-08T09:40:43.563Z,7.82
2019-02-08T09:41:43.560Z,7.70
2019-02-08T09:42:43.561Z,7.76
2019-02-08T09:43:43.541Z,7.75
2019-02-08T09:44:43.537Z,7.82
2019-02-08T09:45:43.527Z,7.85
2019-02-08T09:46:43.524Z,7.87
2019-02-08T09:47:43.513Z,7.87
2019-02-08T09:48:43.507Z,7.77
2019-02-08T09:49:43.715Z,7.83
2019-02-08T09:50:43.485Z,7.83
2019-02-08T09:51:47.350Z,7.91
2019-02-08T09:52:43.475Z,7.87
2019-02-08T09:53:43.464Z,7.90
2019-02-08T09:54:43.452Z,7.85
2019-02-08T09:55:43.450Z,7.90
2019-02-08T09:56:43.441Z,7.83
2019-02-08T09:57:43.437Z,7.87
2019-02-08T09:58:43.428Z,7.82
2019-02-08T09:59:43.417Z,7.82
2019-02-08T10:00:43.403Z,7.88
2019-02-08T10:01:43.402Z,7.88
2019-02-08T10:02:43.394Z,7.88
2019-02-08T10:03:43.388Z,7.91
2019-02-08T10:04:43.378Z,7.97
2019-02-08T10:05:43.364Z,7.94
2019-02-08T10:06:43.363Z,7.93
2019-02-08T10:07:43.351Z,7.90
2019-02-08T10:08:43.345Z,7.95
2019-02-08T10:09:43.332Z,7.98
2019-02-08T10:10:43.327Z,7.98
2019-02-08T10:11:43.324Z,7.98
2019-02-08T10:12:43.338Z,8.01
2019-02-08T10:13:43.301Z,7.98
2019-02-08T10:14:43.295Z,8.00
2019-02-08T10:15:43.291Z,8.03
2019-02-08T10:16:43.278Z,8.09
2019-02-08T10:17:43.276Z,8.10
2019-02-08T10:18:43.276Z,8.13
2019-02-08T10:19:43.283Z,8.13
2019-02-08T10:20:43.254Z,8.12
2019-02-08T10:21:43.241Z,8.12
2019-02-08T10:22:43.236Z,8.08
2019-02-08T10:23:43.233Z,8.03
2019-02-08T10:24:43.223Z,8.00
2019-02-08T10:25:43.210Z,8.09
2019-02-08T10:26:43.207Z,8.18
2019-02-08T10:27:43.198Z,8.15
2019-02-08T10:28:43.192Z,8.15
2019-02-08T10:29:43.181Z,8.13
2019-02-08T10:30:43.178Z,8.13
2019-02-08T10:31:43.163Z,8.18
2019-02-08T10:32:43.154Z,8.05
2019-02-08T10:33:43.154Z,8.08
2019-02-08T10:34:43.140Z,8.18
2019-02-08T10:35:43.140Z,8.20
2019-02-08T10:36:43.132Z,8.23
2019-02-08T10:37:43.120Z,8.23
2019-02-08T10:38:43.114Z,8.24
2019-02-08T10:39:43.103Z,8.28
2019-02-08T10:40:43.097Z,8.31
2019-02-08T10:41:43.094Z,8.36
2019-02-08T10:42:43.085Z,8.38
2019-02-08T10:43:43.078Z,8.33
2019-02-08T10:44:43.066Z,8.42
2019-02-08T10:45:43.059Z,8.37
2019-02-08T10:46:43.052Z,8.37
2019-02-08T10:47:43.046Z,8.33
2019-02-08T10:48:43.043Z,8.42
2019-02-08T10:49:43.031Z,8.34
2019-02-08T10:50:43.023Z,8.44
2019-02-08T10:51:43.020Z,8.33
2019-02-08T10:52:43.007Z,8.46
2019-02-08T10:53:43.006Z,8.45
2019-02-08T10:54:43.000Z,8.45
2019-02-08T10:55:42.992Z,8.53
2019-02-08T10:56:42.982Z,8.51
2019-02-08T10:57:42.972Z,8.56
2019-02-08T10:58:42.971Z,8.53
2019-02-08T10:59:42.964Z,8.55
2019-02-08T11:00:42.952Z,8.61
2019-02-08T11:01:42.943Z,8.61
2019-02-08T11:02:42.943Z,8.58
2019-02-08T11:03:42.928Z,8.60
2019-02-08T11:04:42.919Z,8.55
2019-02-08T11:05:42.912Z,8.53
2019-02-08T11:06:42.909Z,8.63
2019-02-08T11:07:42.898Z,8.63
2019-02-08T11:08:42.891Z,8.61
2019-02-08T11:09:42.889Z,8.69
2019-02-08T11:10:42.879Z,8.66
2019-02-08T11:11:42.878Z,8.67
2019-02-08T11:12:42.861Z,8.63
2019-02-08T11:13:42.856Z,8.69
2019-02-08T11:14:42.849Z,8.63
2019-02-08T11:15:42.843Z,8.64
2019-02-08T11:16:42.836Z,8.70
2019-02-08T11:17:42.828Z,8.69
2019-02-08T11:18:42.818Z,8.74
2019-02-08T11:19:42.825Z,8.69
2019-02-08T11:20:42.810Z,8.67
2019-02-08T11:21:42.796Z,8.63
2019-02-08T11:22:42.795Z,8.78
2019-02-08T11:23:42.785Z,8.78
2019-02-08T11:24:42.782Z,8.73
2019-02-08T11:25:42.770Z,8.74
2019-02-08T11:26:42.763Z,8.76
2019-02-08T11:27:42.958Z,8.82
2019-02-08T11:28:42.746Z,8.82
2019-02-08T11:29:42.742Z,8.82
2019-02-08T11:30:42.736Z,8.79
2019-02-08T11:31:42.733Z,8.85
2019-02-08T11:32:43.654Z,8.82
2019-02-08T11:33:42.717Z,8.82
2019-02-08T11:34:42.711Z,8.78
2019-02-08T11:35:42.699Z,8.87
2019-02-08T11:36:42.697Z,8.87
2019-02-08T11:37:42.688Z,8.85
2019-02-08T11:38:42.679Z,8.89
2019-02-08T11:39:42.675Z,8.79
2019-02-08T11:40:42.663Z,8.78
2019-02-08T11:41:42.657Z,8.84
2019-02-08T11:43:42.649Z,8.89
2019-02-08T11:44:42.638Z,8.95
2019-02-08T11:45:42.634Z,8.88
2019-02-08T11:46:42.622Z,8.95
2019-02-08T11:47:42.621Z,9.02
2019-02-08T11:48:42.616Z,8.92
2019-02-08T11:49:42.605Z,8.95
2019-02-08T11:50:42.599Z,8.99
2019-02-08T11:51:42.611Z,8.94
2019-02-08T11:52:42.593Z,8.95
2019-02-08T11:54:42.569Z,9.03
2019-02-08T11:55:42.564Z,9.02
2019-02-08T11:56:42.557Z,9.03
2019-02-08T11:57:42.549Z,9.00
2019-02-08T11:58:42.540Z,9.11
2019-02-08T11:59:42.539Z,9.04
2019-02-08T12:00:42.521Z,9.13
2019-02-08T12:01:42.520Z,9.08
2019-02-08T12:02:42.508Z,9.11
2019-02-08T12:03:42.504Z,9.08
2019-02-08T12:04:42.496Z,9.16
2019-02-08T12:05:42.488Z,9.18
2019-02-08T12:06:42.482Z,9.16
2019-02-08T12:07:42.475Z,9.13
2019-02-08T12:08:42.468Z,9.10
2019-02-08T12:10:42.458Z,9.18
2019-02-08T12:11:42.451Z,9.11
2019-02-08T12:12:42.438Z,9.13
2019-02-08T12:13:42.438Z,9.14
2019-02-08T12:14:42.426Z,9.29
2019-02-08T12:15:42.423Z,9.31
2019-02-08T12:16:42.418Z,9.28
2019-02-08T12:17:42.407Z,9.29
2019-02-08T12:18:42.406Z,9.29
2019-02-08T12:19:42.391Z,9.28
2019-02-08T12:20:42.386Z,9.26
2019-02-08T12:21:42.384Z,9.25
2019-02-08T12:22:42.377Z,9.31
2019-02-08T12:23:42.372Z,9.39
2019-02-08T12:24:42.361Z,9.39
2019-02-08T12:25:42.358Z,9.31
2019-02-08T12:26:42.344Z,9.34
2019-02-08T12:27:42.343Z,9.44
2019-02-08T12:28:42.336Z,9.41
2019-02-08T12:29:42.331Z,9.47
2019-02-08T12:30:42.319Z,9.46
2019-02-08T12:31:42.317Z,9.46
2019-02-08T12:32:42.311Z,9.41
2019-02-08T12:33:42.302Z,9.46
2019-02-08T12:34:42.296Z,9.50
2019-02-08T12:35:42.286Z,9.59
2019-02-08T12:36:42.287Z,9.64
2019-02-08T12:37:42.274Z,9.65
2019-02-08T12:38:42.270Z,9.68
2019-02-08T12:39:42.269Z,9.66
2019-02-08T12:40:42.264Z,9.64
2019-02-08T12:41:42.256Z,9.69
2019-02-08T12:42:42.246Z,9.68
2019-02-08T12:43:42.243Z,9.62
2019-02-08T12:44:42.230Z,9.64
2019-02-08T12:45:42.230Z,9.65
2019-02-08T12:46:42.221Z,9.68
2019-02-08T12:47:42.223Z,9.77
2019-02-08T12:48:42.214Z,9.77
2019-02-08T12:49:42.200Z,9.79
2019-02-08T12:51:42.192Z,9.74
2019-02-08T12:52:42.186Z,9.68
2019-02-08T12:53:42.176Z,9.82
2019-02-08T12:54:42.171Z,9.77
2019-02-08T12:55:42.165Z,9.79
2019-02-08T12:56:45.648Z,9.69
2019-02-08T12:57:42.155Z,9.79
2019-02-08T12:58:42.152Z,9.77
2019-02-08T12:59:42.150Z,9.73
2019-02-08T13:01:42.131Z,9.76
2019-02-08T13:02:42.122Z,9.74
2019-02-08T13:03:42.116Z,9.74
2019-02-08T13:04:42.117Z,9.87
2019-02-08T13:05:42.112Z,9.82
2019-02-08T13:06:42.099Z,9.77
2019-02-08T13:07:42.095Z,9.73
2019-02-08T13:08:42.085Z,9.79
2019-02-08T13:09:42.083Z,9.73
2019-02-08T13:10:42.077Z,9.80
2019-02-08T13:11:42.068Z,9.76
2019-02-08T13:12:42.060Z,9.77
2019-02-08T13:14:15.262Z,9.74
2019-02-08T13:14:42.051Z,9.72
2019-02-08T13:15:42.050Z,9.77
2019-02-08T13:16:42.038Z,9.73
2019-02-08T13:17:42.035Z,9.77
2019-02-08T13:18:42.031Z,9.74
2019-02-08T13:19:42.024Z,9.74
2019-02-08T13:20:42.011Z,9.79
2019-02-08T13:21:42.015Z,9.80
2019-02-08T13:22:41.999Z,9.77
2019-02-08T13:23:41.996Z,9.73
2019-02-08T13:24:41.989Z,9.76
2019-02-08T13:25:41.977Z,9.80
2019-02-08T13:26:41.981Z,9.74
2019-02-08T13:27:41.966Z,9.77
2019-02-08T13:28:41.963Z,9.83
2019-02-08T13:29:41.958Z,9.73